| time (UTC) | temp F | wind direction | speed MPH | gust MPH | rain 1hr in | rain 24hr in | rain mn in | humidity % | barometer mb |
| 20260504050015 | 42 | 0.0 | 1.0 | 0.00 | 0.00 | 0.00 | 67 | 1012.0 | |
| 20260504045015 | 42 | 0.0 | 1.0 | 0.00 | 0.00 | 0.00 | 68 | 1012.0 | |
| 20260504044015 | 43 | 0.0 | 0.0 | 0.00 | 0.00 | 0.00 | 69 | 1012.0 | |
| 20260504043015 | 43 | 0.0 | 0.0 | 0.00 | 0.00 | 0.00 | 68 | 1012.0 | |
| 20260504042017 | 43 | 0.0 | 0.0 | 0.00 | 0.00 | 0.00 | 67 | 1012.0 | |
| 20260504041017 | 43 | 0.0 | 0.0 | 0.00 | 0.00 | 0.00 | 65 | 1012.0 | |
| 20260504040037 | 43 | 0.0 | 0.0 | 0.00 | 0.00 | 0.00 | 64 | 1012.0 | |
| 20260504035016 | 44 | 0.0 | 0.0 | 0.00 | 0.00 | 0.00 | 66 | 1012.0 | |
| 20260504034036 | 44 | 0.0 | 0.0 | 0.00 | 0.00 | 0.00 | 62 | 1012.0 | |
| 20260504033016 | 44 | 0.0 | 0.0 | 0.00 | 0.00 | 0.00 | 64 | 1012.0 | |
| 20260504032016 | 45 | 0.0 | 0.0 | 0.00 | 0.00 | 0.00 | 64 | 1012.0 | |
| 20260504031016 | 45 | 0.0 | 0.0 | 0.00 | 0.00 | 0.00 | 64 | 1012.1 | |
| 20260504030015 | 45 | 0.0 | 0.0 | 0.00 | 0.00 | 0.00 | 63 | 1012.0 | |
| 20260504025015 | 45 | 0.0 | 0.0 | 0.00 | 0.00 | 0.00 | 62 | 1012.0 | |
| 20260504024016 | 46 | 0.0 | 0.0 | 0.00 | 0.00 | 0.00 | 62 | 1011.9 | |
| 20260504023016 | 46 | 0.0 | 0.0 | 0.00 | 0.00 | 0.00 | 61 | 1011.9 | |
| 20260504022015 | 46 | 0.0 | 0.0 | 0.00 | 0.00 | 0.00 | 60 | 1011.8 | |
| 20260504021015 | 46 | 0.0 | 0.0 | 0.00 | 0.00 | 0.00 | 61 | 1011.7 | |
| 20260504020015 | 46 | 0.0 | 0.0 | 0.00 | 0.00 | 0.00 | 60 | 1011.7 | |
| 20260504015035 | 46 | 0.0 | 0.0 | 0.00 | 0.00 | 0.00 | 59 | 1011.5 | |
| 20260504014016 | 47 | 0.0 | 0.0 | 0.00 | 0.00 | 0.00 | 58 | 1011.5 | |
| 20260504013035 | 47 | 0.0 | 0.0 | 0.00 | 0.00 | 0.00 | 57 | 1011.5 | |
| 20260504012015 | 48 | 0.0 | 0.0 | 0.00 | 0.00 | 0.00 | 58 | 1011.4 | |
| 20260504011035 | 49 | 0.0 | 0.0 | 0.00 | 0.00 | 0.00 | 55 | 1011.4 | |
| 20260504010015 | 49 | 0.0 | 0.0 | 0.00 | 0.00 | 0.00 | 51 | 1011.4 | |
| 20260504005017 | 50 | 0.0 | 0.0 | 0.00 | 0.00 | 0.00 | 52 | 1011.3 | |
| 20260504004037 | 52 | 0.0 | 0.0 | 0.00 | 0.00 | 0.00 | 50 | 1011.0 | |
| 20260504003017 | 53 | 0.0 | 0.0 | 0.00 | 0.00 | 0.00 | 45 | 1011.0 | |
| 20260504002037 | 54 | 0.0 | 0.0 | 0.00 | 0.00 | 0.00 | 42 | 1011.0 | |
| 20260504001017 | 56 | 0.0 | 0.0 | 0.00 | 0.00 | 0.00 | 40 | 1011.0 | |
| 20260504000017 | 57 | 0.0 | 0.0 | 0.00 | 0.00 | 0.00 | 31 | 1010.9 | |
| 20260503235017 | 58 | 0.0 | 3.0 | 0.00 | 0.00 | 0.00 | 30 | 1010.8 | |
| 20260503234017 | 58 | 315 | 1.0 | 6.0 | 0.00 | 0.00 | 0.00 | 28 | 1010.8 |
| 20260503233017 | 58 | 0.0 | 2.0 | 0.00 | 0.00 | 0.00 | 28 | 1010.6 | |
| 20260503232017 | 59 | 315 | 1.0 | 4.0 | 0.00 | 0.00 | 0.00 | 28 | 1010.5 |
| 20260503231017 | 59 | 315 | 1.0 | 6.0 | 0.00 | 0.00 | 0.00 | 28 | 1010.5 |
| 20260503230037 | 60 | 315 | 3.0 | 7.0 | 0.00 | 0.00 | 0.00 | 27 | 1010.5 |
| 20260503225017 | 60 | 315 | 4.0 | 10.0 | 0.00 | 0.00 | 0.00 | 26 | 1010.4 |
| 20260503224017 | 62 | 315 | 3.0 | 10.0 | 0.00 | 0.00 | 0.00 | 26 | 1010.5 |
| 20260503223017 | 63 | 293 | 4.0 | 14.0 | 0.00 | 0.00 | 0.00 | 24 | 1010.5 |
| 20260503222017 | 63 | 293 | 4.0 | 9.0 | 0.00 | 0.00 | 0.00 | 25 | 1010.7 |
| 20260503221017 | 64 | 293 | 4.0 | 10.0 | 0.00 | 0.00 | 0.00 | 24 | 1010.8 |
| 20260503220017 | 64 | 293 | 2.0 | 6.0 | 0.00 | 0.00 | 0.00 | 22 | 1010.8 |
| 20260503215017 | 63 | 293 | 3.0 | 7.0 | 0.00 | 0.00 | 0.00 | 24 | 1010.9 |
| 20260503214017 | 64 | 270 | 4.0 | 11.0 | 0.00 | 0.00 | 0.00 | 23 | 1010.9 |
| 20260503213017 | 64 | 293 | 3.0 | 7.0 | 0.00 | 0.00 | 0.00 | 25 | 1010.9 |
| 20260503212017 | 63 | 293 | 2.0 | 5.0 | 0.00 | 0.00 | 0.00 | 23 | 1010.8 |
| 20260503211017 | 64 | 293 | 2.0 | 9.0 | 0.00 | 0.00 | 0.00 | 26 | 1010.7 |
| 20260503210017 | 64 | 293 | 3.0 | 9.0 | 0.00 | 0.00 | 0.00 | 27 | 1010.7 |
| 20260503205017 | 63 | 293 | 3.0 | 7.0 | 0.00 | 0.00 | 0.00 | 24 | 1010.8 |
| 20260503204017 | 61 | 338 | 3.0 | 10.0 | 0.00 | 0.00 | 0.00 | 24 | 1010.8 |
| 20260503203037 | 63 | 248 | 2.0 | 7.0 | 0.00 | 0.00 | 0.00 | 25 | 1010.9 |
| 20260503202016 | 63 | 270 | 3.0 | 10.0 | 0.00 | 0.00 | 0.00 | 26 | 1011.0 |
| 20260503201017 | 63 | 248 | 4.0 | 15.0 | 0.00 | 0.00 | 0.00 | 24 | 1011.2 |
| 20260503200017 | 61 | 315 | 3.0 | 9.0 | 0.00 | 0.00 | 0.00 | 26 | 1011.2 |
| 20260503195017 | 60 | 315 | 1.0 | 4.0 | 0.00 | 0.00 | 0.00 | 28 | 1011.4 |
| 20260503194036 | 62 | 270 | 3.0 | 7.0 | 0.00 | 0.00 | 0.00 | 25 | 1011.5 |
| 20260503193037 | 62 | 270 | 5.0 | 13.0 | 0.00 | 0.00 | 0.00 | 25 | 1011.5 |
| 20260503192016 | 62 | 338 | 5.0 | 14.0 | 0.00 | 0.00 | 0.00 | 25 | 1011.8 |
| 20260503191016 | 62 | 315 | 3.0 | 10.0 | 0.00 | 0.00 | 0.00 | 26 | 1011.8 |
| 20260503190016 | 61 | 293 | 5.0 | 13.0 | 0.00 | 0.00 | 0.00 | 26 | 1011.8 |
| 20260503185016 | 61 | 270 | 5.0 | 14.0 | 0.00 | 0.00 | 0.00 | 25 | 1012.0 |
| 20260503184016 | 61 | 293 | 4.0 | 11.0 | 0.00 | 0.00 | 0.00 | 25 | 1012.1 |
| 20260503183016 | 61 | 315 | 4.0 | 12.0 | 0.00 | 0.00 | 0.00 | 23 | 1012.1 |
| 20260503182016 | 62 | 293 | 3.0 | 9.0 | 0.00 | 0.00 | 0.00 | 24 | 1012.0 |
| 20260503181016 | 61 | 293 | 4.0 | 10.0 | 0.00 | 0.00 | 0.00 | 25 | 1012.3 |
| 20260503180016 | 60 | 270 | 3.0 | 11.0 | 0.00 | 0.00 | 0.00 | 26 | 1012.3 |
| 20260503175016 | 60 | 248 | 2.0 | 10.0 | 0.00 | 0.00 | 0.00 | 26 | 1012.5 |
| 20260503174016 | 59 | 315 | 4.0 | 15.0 | 0.00 | 0.00 | 0.00 | 24 | 1012.5 |
| 20260503173016 | 59 | 293 | 4.0 | 12.0 | 0.00 | 0.00 | 0.00 | 26 | 1012.5 |
| 20260503172016 | 58 | 270 | 6.0 | 16.0 | 0.00 | 0.00 | 0.00 | 26 | 1012.6 |
| 20260503171036 | 58 | 293 | 3.0 | 9.0 | 0.00 | 0.00 | 0.00 | 27 | 1012.7 |
| 20260503131015 | 47 | 315 | 3.0 | 10.0 | 0.00 | 0.00 | 0.00 | 50 | 1014.1 |
| 20260503081017 | 37 | 0.0 | 0.0 | 0.00 | 0.00 | 0.00 | 74 | 1012.0 | |
| 20260503080539 | 38 | 0.0 | 0.0 | 0.00 | 0.00 | 0.00 | 72 | 1012.0 | |
| 20260503072016 | 39 | 0.0 | 0.0 | 0.00 | 0.00 | 0.00 | 68 | 1011.5 | |
| 20260503071016 | 40 | 0.0 | 0.0 | 0.00 | 0.00 | 0.00 | 68 | 1011.4 |